Gerrardstown, WV (25420)

2:11 PM EST on March 03, 2015 (GMT -0500)
Foxwood Knolls | Change Station
CLOSE
Current Station
Personal Weather Station
Location: Gerrardstown, WV
Elevation: 800 ft
Nearby Weather Stations
Active Advisory: Winter Weather Advisory

Elev 800 ft 39.39 °N, 78.13 °W | Updated 19 seconds ago

Overcast
Overcast
31.4 °F
Feels Like 24 °F
N
8.0
Wind Variable Wind from SE
Gusts 17.0 mph

Today
High -- | Low -- °F
--% Chance of Precip.
Yesterday
High -- | Low -- °F
Precip. -- in
6:42 AM 6:06 PM
Waxing Gibbous, 97% visible
Pressure 30.17 in
Visibility 10.0 miles
Clouds Overcast 3700 ft
Windchill 24 °F
Dew Point 18 °F
Humidity 57%
Rainfall 0.00 in
Snow Depth Not available.
UV 2 out of 12
Pollen .90 out of 12
Air Quality Not available.
Flu Activity Not available.
METAR KMRB 031853Z 15011G16KT 10SM OVC037 01/M09 A3015 RMK AO2 UPB1759E08RAB08E09 PRESFR SLP216 P0000 T00061089

More Conditions Fewer Conditions

Pressure 30.17 in
Visibility 10.0 miles
Clouds Overcast 3700 ft
Windchill 24 °F
Dew Point 18 °F
Humidity 57%
Rainfall 0.00 in
Snow Depth Not available.
UV 2 out of 12
Pollen .90 out of 12
Air Quality Not available.
Flu Activity Not available.
METAR KMRB 031853Z 15011G16KT 10SM OVC037 01/M09 A3015 RMK AO2 UPB1759E08RAB08E09 PRESFR SLP216 P0000 T00061089

More Conditions Fewer Conditions

10-Day Weather Forecast

Almanac

Astronomy

Mar. 03, 2015 Rise Set
Actual Time
Civil Twilight
Nautical Twilight
Astronomical Twilight
Moon
Length of Visible Light
Length of Day
Tomorrow will be .
, % of the Moon is Illuminated

Today's Extremes

State Highs State Lows

Community

WunderPhotos

Upload Photos

1,802,201 photos uploaded!

WunderBlogs® & News

Nearby

Air Quality

  Air Quality AQ Index Pollutant
Not available.

Snow Depth

Station Depth Elevation

Earthquake Activity

City Distance Mag. Time & Date
Minimum magnitude displayed is 2.5.

Coastal Water Temperatures

Place Temperature

Nearby Weather Stations

Winter Weather Advisory
Statement as of 12:48 PM EST on March 03, 2015

... Winter Weather Advisory remains in effect until 10 PM EST this
evening...

* locations... the eastern West Virginia Panhandle and western
Maryland.

* Hazard types... freezing rain and some sleet.

* Ice accumulations... a up to one tenth of an inch of ice.

* Timing... this afternoon into the first part of tonight.

* Impacts... roads likely slippery due to ice. Traveling will be
dangerous.

* Winds... south 10 to 20 mph.

* Temperatures... in the lower 30s.

Precautionary/preparedness actions...

A Winter Weather Advisory means that periods of snow... sleet... or
freezing rain will cause travel difficulties. Be prepared for
slippery roads and limited visibilities... and use caution while
driving.